createdAt,value
2023-02-23T00:00:08.603Z,16.00
2023-02-23T00:03:12.624Z,14.20
2023-02-23T00:06:15.925Z,13.20
2023-02-23T00:09:24.398Z,14.70
2023-02-23T00:12:27.544Z,14.10
2023-02-23T00:15:31.984Z,13.53
2023-02-23T00:18:45.166Z,14.37
2023-02-23T00:21:48.329Z,15.10
2023-02-23T00:24:51.484Z,12.50
2023-02-23T00:27:54.936Z,13.10
2023-02-23T00:31:00.026Z,13.97
2023-02-23T00:34:05.341Z,13.50
2023-02-23T00:37:08.935Z,13.97
2023-02-23T00:40:16.329Z,16.33
2023-02-23T00:43:20.140Z,16.37
2023-02-23T00:46:27.688Z,15.23
2023-02-23T00:49:30.964Z,14.60
2023-02-23T00:52:34.197Z,14.27
2023-02-23T00:55:37.316Z,15.47
2023-02-23T00:58:41.248Z,14.53
2023-02-23T01:01:46.274Z,15.47
2023-02-23T01:04:49.569Z,14.23
2023-02-23T01:07:52.723Z,15.23
2023-02-23T01:10:55.885Z,13.60
2023-02-23T01:14:00.613Z,13.87
2023-02-23T01:17:05.122Z,14.33
2023-02-23T01:20:15.745Z,14.63
2023-02-23T01:23:20.893Z,14.77
2023-02-23T01:26:27.005Z,14.53
2023-02-23T01:29:30.547Z,15.57
2023-02-23T01:32:36.463Z,13.73
2023-02-23T01:35:39.610Z,13.70
2023-02-23T01:38:43.028Z,14.07
2023-02-23T01:41:46.424Z,16.10
2023-02-23T01:45:24.894Z,14.23
2023-02-23T01:48:34.273Z,14.10
2023-02-23T01:51:43.058Z,15.33
2023-02-23T01:54:51.107Z,15.37
2023-02-23T01:57:59.605Z,14.30
2023-02-23T02:01:03.292Z,14.67
2023-02-23T02:04:08.628Z,12.70
2023-02-23T02:07:14.322Z,14.70
2023-02-23T02:10:35.815Z,14.97
2023-02-23T02:13:40.831Z,13.43
2023-02-23T02:16:54.755Z,14.47
2023-02-23T02:20:46.556Z,14.70
2023-02-23T02:24:11.024Z,14.13
2023-02-23T02:27:27.958Z,14.00
2023-02-23T02:31:16.994Z,14.10
2023-02-23T02:35:08.594Z,15.47
2023-02-23T02:38:29.770Z,15.07
2023-02-23T02:41:42.386Z,14.70
2023-02-23T02:44:53.412Z,14.80
2023-02-23T02:48:02.838Z,15.23
2023-02-23T02:51:12.232Z,16.20
2023-02-23T02:54:26.648Z,15.53
2023-02-23T02:57:31.024Z,16.10
2023-02-23T03:00:55.388Z,15.30
2023-02-23T03:04:17.752Z,16.40
2023-02-23T03:07:45.196Z,15.20
2023-02-23T03:11:15.277Z,16.57
2023-02-23T03:14:46.924Z,16.27
2023-02-23T03:18:15.592Z,15.27
2023-02-23T03:21:42.678Z,16.20
2023-02-23T03:25:10.290Z,15.23
2023-02-23T03:28:36.828Z,15.43
2023-02-23T03:32:02.816Z,14.90
2023-02-23T03:35:28.397Z,14.60
2023-02-23T03:38:55.001Z,16.03
2023-02-23T03:42:17.525Z,14.40
2023-02-23T03:45:43.815Z,15.00
2023-02-23T03:49:06.669Z,14.27
2023-02-23T03:52:33.144Z,16.57
2023-02-23T03:55:57.980Z,14.20
2023-02-23T03:59:21.263Z,16.43
2023-02-23T04:02:45.260Z,16.13
2023-02-23T04:06:09.186Z,15.07
2023-02-23T04:09:30.137Z,15.97
2023-02-23T04:12:56.387Z,16.60
2023-02-23T04:16:02.116Z,16.07
2023-02-23T04:19:07.608Z,15.70
2023-02-23T04:22:10.737Z,16.67
2023-02-23T04:25:17.251Z,15.30
2023-02-23T04:28:20.937Z,15.70
2023-02-23T04:31:25.322Z,17.60
2023-02-23T04:34:30.223Z,17.47
2023-02-23T04:37:33.480Z,16.93
2023-02-23T04:40:36.759Z,15.30
2023-02-23T04:43:39.914Z,16.17
2023-02-23T04:46:43.077Z,15.87
2023-02-23T04:49:47.590Z,16.13
2023-02-23T04:52:52.482Z,16.10
2023-02-23T04:55:55.922Z,16.60
2023-02-23T04:58:59.173Z,14.77
2023-02-23T05:02:02.783Z,16.33
2023-02-23T05:05:09.265Z,14.70
2023-02-23T05:08:12.522Z,17.03
2023-02-23T05:11:15.640Z,18.10
2023-02-23T05:14:18.943Z,16.37
2023-02-23T05:17:22.130Z,15.20
2023-02-23T05:20:26.954Z,16.73
2023-02-23T05:23:30.430Z,17.67
2023-02-23T05:26:34.101Z,15.93
2023-02-23T05:29:37.710Z,16.43
2023-02-23T05:32:40.848Z,17.37
2023-02-23T05:35:45.375Z,14.70
2023-02-23T05:38:49.524Z,16.30
2023-02-23T05:41:52.703Z,14.83
2023-02-23T05:44:55.879Z,16.83
2023-02-23T05:47:59.232Z,15.90
2023-02-23T05:51:05.192Z,15.67
2023-02-23T05:54:08.579Z,17.73
2023-02-23T05:57:11.739Z,15.03
2023-02-23T06:00:15.529Z,15.17
2023-02-23T06:03:18.872Z,17.33
2023-02-23T06:06:25.486Z,16.60
2023-02-23T06:09:28.861Z,17.40
2023-02-23T06:12:32.048Z,15.40
2023-02-23T06:15:35.191Z,17.30
2023-02-23T06:18:38.549Z,17.70
2023-02-23T06:21:43.098Z,17.73
2023-02-23T06:24:46.486Z,18.27
2023-02-23T06:27:49.654Z,18.07
2023-02-23T06:30:53.497Z,18.60
2023-02-23T06:33:57.253Z,17.43
2023-02-23T06:37:01.942Z,18.80
2023-02-23T06:40:05.910Z,16.43
2023-02-23T06:43:09.084Z,16.00
2023-02-23T06:46:12.216Z,16.97
2023-02-23T06:49:16.656Z,17.30
2023-02-23T06:52:21.369Z,17.43
2023-02-23T06:55:24.563Z,18.83
2023-02-23T06:58:28.419Z,18.93
2023-02-23T07:01:31.593Z,17.90
2023-02-23T07:04:35.131Z,18.70
2023-02-23T07:07:40.074Z,17.87
2023-02-23T07:10:43.873Z,19.87
2023-02-23T07:13:47.073Z,19.40
2023-02-23T07:16:50.228Z,21.03
2023-02-23T07:19:53.416Z,19.93
2023-02-23T07:22:58.031Z,20.10
2023-02-23T07:26:01.831Z,19.97
2023-02-23T07:29:05.383Z,21.77
2023-02-23T07:32:09.032Z,20.53
2023-02-23T07:35:13.340Z,21.17
2023-02-23T07:38:18.020Z,20.37
2023-02-23T07:41:21.674Z,21.80
2023-02-23T07:44:25.116Z,22.00
2023-02-23T07:47:31.186Z,19.83
2023-02-23T07:50:34.376Z,19.90
2023-02-23T07:53:38.974Z,20.40
2023-02-23T07:56:42.179Z,20.13
2023-02-23T07:59:45.393Z,19.90
2023-02-23T08:02:48.546Z,19.43
2023-02-23T08:05:51.828Z,19.57
2023-02-23T08:08:56.411Z,19.40
2023-02-23T08:11:59.709Z,19.20
2023-02-23T08:15:02.987Z,21.63
2023-02-23T08:18:06.601Z,18.73
2023-02-23T08:21:09.811Z,18.43
2023-02-23T08:24:14.581Z,19.50
2023-02-23T08:27:17.768Z,18.03
2023-02-23T08:30:23.665Z,18.93
2023-02-23T08:33:26.985Z,18.60
2023-02-23T08:36:30.379Z,19.37
2023-02-23T08:39:34.982Z,17.60
2023-02-23T08:42:38.116Z,19.03
2023-02-23T08:45:41.321Z,16.83
2023-02-23T08:48:44.542Z,15.67
2023-02-23T08:51:48.036Z,17.60
2023-02-23T08:54:52.587Z,16.70
2023-02-23T08:57:55.827Z,17.27
2023-02-23T09:00:59.495Z,18.20
2023-02-23T09:04:02.692Z,17.80
2023-02-23T09:07:06.237Z,16.03
2023-02-23T09:10:14.334Z,17.93
2023-02-23T09:13:17.778Z,14.87
2023-02-23T09:16:21.053Z,15.53
2023-02-23T09:19:24.317Z,16.80
2023-02-23T09:22:27.640Z,17.40
2023-02-23T09:25:32.438Z,15.30
2023-02-23T09:28:38.194Z,16.30
2023-02-23T09:31:43.851Z,16.23
2023-02-23T09:34:48.827Z,16.37
2023-02-23T09:37:54.756Z,17.67
2023-02-23T09:40:59.427Z,17.13
2023-02-23T09:44:06.009Z,17.00
2023-02-23T09:47:22.894Z,17.80
2023-02-23T09:50:29.460Z,18.43
2023-02-23T09:53:37.470Z,17.30
2023-02-23T09:56:46.328Z,16.53
2023-02-23T09:59:49.542Z,17.07
2023-02-23T10:03:10.622Z,17.37
2023-02-23T10:06:17.141Z,19.70
2023-02-23T10:09:28.683Z,18.30
2023-02-23T10:12:40.319Z,20.30
2023-02-23T10:15:48.314Z,20.67
2023-02-23T10:19:00.509Z,19.93
2023-02-23T10:22:06.834Z,20.43
2023-02-23T10:25:14.544Z,18.77
2023-02-23T10:28:22.252Z,19.83
2023-02-23T10:31:29.933Z,20.57
2023-02-23T10:34:33.913Z,20.53
2023-02-23T10:37:37.132Z,21.57
2023-02-23T10:40:40.633Z,20.73
2023-02-23T10:43:45.265Z,21.37
2023-02-23T10:46:55.282Z,20.40
2023-02-23T10:49:59.685Z,21.70
2023-02-23T10:53:16.680Z,18.60
2023-02-23T10:56:21.977Z,21.17
2023-02-23T10:59:27.567Z,19.70
2023-02-23T11:02:32.019Z,21.53
2023-02-23T11:05:46.553Z,22.40
2023-02-23T11:08:49.930Z,22.17
2023-02-23T11:12:03.798Z,20.43
2023-02-23T11:15:46.376Z,21.00
2023-02-23T11:18:55.695Z,20.50
2023-02-23T11:21:59.049Z,20.90
2023-02-23T11:25:06.775Z,21.23
2023-02-23T11:28:20.969Z,21.37
2023-02-23T11:31:32.163Z,22.57
2023-02-23T11:34:40.832Z,22.13
2023-02-23T11:37:44.102Z,21.00
2023-02-23T11:41:00.361Z,21.27
2023-02-23T11:44:06.247Z,22.40
2023-02-23T11:47:20.612Z,21.27
2023-02-23T11:50:28.141Z,21.83
2023-02-23T11:53:36.030Z,20.73
2023-02-23T11:56:39.292Z,22.13
2023-02-23T11:59:47.801Z,20.77
2023-02-23T12:02:55.994Z,20.77
2023-02-23T12:06:02.436Z,22.30
2023-02-23T12:09:18.601Z,22.60
2023-02-23T12:12:24.496Z,20.83
2023-02-23T12:15:37.361Z,21.53
2023-02-23T12:18:49.549Z,23.83
2023-02-23T12:22:01.430Z,24.60
2023-02-23T12:25:07.605Z,22.83
2023-02-23T12:28:19.380Z,23.43
2023-02-23T12:31:28.413Z,25.43
2023-02-23T12:34:40.535Z,21.97
2023-02-23T12:37:47.808Z,23.77
2023-02-23T12:40:55.416Z,25.23
2023-02-23T12:44:03.194Z,25.00
2023-02-23T12:47:25.857Z,25.70
2023-02-23T12:50:33.800Z,26.13
2023-02-23T12:53:41.932Z,27.20
2023-02-23T12:57:04.742Z,25.80
2023-02-23T13:00:36.167Z,24.03
2023-02-23T13:04:02.750Z,25.57
2023-02-23T13:07:15.304Z,25.70
2023-02-23T13:10:29.038Z,25.37
2023-02-23T13:13:39.589Z,26.70
2023-02-23T13:16:49.559Z,26.43
2023-02-23T13:19:56.673Z,27.10
2023-02-23T13:23:11.835Z,26.83
2023-02-23T13:26:27.600Z,27.03
2023-02-23T13:29:37.467Z,28.10
2023-02-23T13:32:40.852Z,27.23
2023-02-23T13:35:44.230Z,30.40
2023-02-23T13:39:18.478Z,27.87
2023-02-23T13:42:33.929Z,28.10
2023-02-23T13:45:54.666Z,28.53
2023-02-23T13:49:02.425Z,29.70
2023-02-23T13:52:16.441Z,27.73
2023-02-23T13:55:48.814Z,27.00
2023-02-23T13:58:57.772Z,28.30
2023-02-23T14:02:07.678Z,26.70
2023-02-23T14:05:19.924Z,28.70
2023-02-23T14:08:28.537Z,28.50
2023-02-23T14:11:48.347Z,28.77
2023-02-23T14:14:51.570Z,26.60
2023-02-23T14:17:59.268Z,28.30
2023-02-23T14:21:17.384Z,26.00
2023-02-23T14:24:23.105Z,26.03
2023-02-23T14:27:41.685Z,23.60
2023-02-23T14:30:51.051Z,25.40
2023-02-23T14:34:00.908Z,26.27
2023-02-23T14:37:15.299Z,24.27
2023-02-23T14:40:24.189Z,25.10
2023-02-23T14:43:43.791Z,22.70
2023-02-23T14:46:58.196Z,23.27
2023-02-23T14:50:02.899Z,23.63
2023-02-23T14:53:10.216Z,24.47
2023-02-23T14:56:21.531Z,24.53
2023-02-23T14:59:28.201Z,25.53
2023-02-23T15:02:32.144Z,26.57
2023-02-23T15:05:38.120Z,27.13
2023-02-23T15:08:45.921Z,26.73
2023-02-23T15:11:54.159Z,24.97
2023-02-23T15:15:02.139Z,24.50
2023-02-23T15:18:41.918Z,24.37
2023-02-23T15:21:50.381Z,22.90
2023-02-23T15:24:53.743Z,23.77
2023-02-23T15:27:57.010Z,25.20
2023-02-23T15:31:04.883Z,22.70
2023-02-23T15:34:11.423Z,23.27
2023-02-23T15:37:21.720Z,21.53
2023-02-23T15:40:29.248Z,22.77
2023-02-23T15:43:34.638Z,21.37
2023-02-23T15:46:41.690Z,21.23
2023-02-23T15:49:45.211Z,24.03
2023-02-23T15:52:52.197Z,29.23
2023-02-23T15:56:00.793Z,24.70
2023-02-23T15:59:11.334Z,22.50
2023-02-23T16:02:20.748Z,24.70
2023-02-23T16:05:30.379Z,23.90
2023-02-23T16:08:37.099Z,23.10
2023-02-23T16:11:41.919Z,23.00
2023-02-23T16:14:48.547Z,24.60
2023-02-23T16:17:58.356Z,22.60
2023-02-23T16:21:03.162Z,25.20
2023-02-23T16:24:11.777Z,25.53
2023-02-23T16:27:15.869Z,24.60
2023-02-23T16:30:23.745Z,24.50
2023-02-23T16:33:30.030Z,23.20
2023-02-23T16:36:38.736Z,24.63
2023-02-23T16:39:42.236Z,25.10
2023-02-23T16:42:46.174Z,23.90
2023-02-23T16:45:50.512Z,23.40
2023-02-23T16:48:59.729Z,24.60
2023-02-23T16:52:03.994Z,22.93
2023-02-23T16:55:08.042Z,25.00
2023-02-23T16:58:18.599Z,24.73
2023-02-23T17:01:22.120Z,22.70
2023-02-23T17:04:28.058Z,22.73
2023-02-23T17:07:32.286Z,23.80
2023-02-23T17:10:37.147Z,24.73
2023-02-23T17:13:41.493Z,24.70
2023-02-23T17:16:46.108Z,25.73
2023-02-23T17:19:51.928Z,24.80
2023-02-23T17:22:56.576Z,24.93
2023-02-23T17:26:05.694Z,26.37
2023-02-23T17:29:09.747Z,26.60
2023-02-23T17:32:14.040Z,25.20
2023-02-23T17:35:19.921Z,24.50
2023-02-23T17:38:34.292Z,24.63
2023-02-23T17:41:38.680Z,24.80
2023-02-23T17:44:43.692Z,26.00
2023-02-23T17:47:48.900Z,26.70
2023-02-23T17:51:01.323Z,26.60
2023-02-23T17:54:06.853Z,27.80
2023-02-23T17:57:11.182Z,29.53
2023-02-23T18:00:17.942Z,31.00
2023-02-23T18:03:22.389Z,26.97
2023-02-23T18:06:29.577Z,30.53
2023-02-23T18:09:35.337Z,27.50
2023-02-23T18:12:39.376Z,27.87
2023-02-23T18:15:43.710Z,29.23
2023-02-23T18:18:50.654Z,29.73
2023-02-23T18:21:57.738Z,27.07
2023-02-23T18:25:03.620Z,27.47
2023-02-23T18:28:11.082Z,29.13
2023-02-23T18:31:18.072Z,27.23
2023-02-23T18:34:22.827Z,29.30
2023-02-23T18:37:29.317Z,28.57
2023-02-23T18:40:34.907Z,30.20
2023-02-23T18:43:43.830Z,28.87
2023-02-23T18:46:49.679Z,30.10
2023-02-23T18:49:54.915Z,27.63
2023-02-23T18:53:05.532Z,31.73
2023-02-23T18:56:13.353Z,28.17
2023-02-23T18:59:19.665Z,26.23
2023-02-23T19:02:25.777Z,28.87
2023-02-23T19:05:30.923Z,27.50
2023-02-23T19:08:45.131Z,26.37
2023-02-23T19:11:54.154Z,28.43
2023-02-23T19:15:00.510Z,28.90
2023-02-23T19:18:06.183Z,29.00
2023-02-23T19:21:11.998Z,28.43
2023-02-23T19:24:19.948Z,27.70
2023-02-23T19:27:26.198Z,28.30
2023-02-23T19:30:33.071Z,29.70
2023-02-23T19:33:39.220Z,29.67
2023-02-23T19:36:49.917Z,29.70
2023-02-23T19:39:58.136Z,30.50
2023-02-23T19:43:03.674Z,31.90
2023-02-23T19:46:09.573Z,31.00
2023-02-23T19:49:17.527Z,32.90
2023-02-23T19:52:23.152Z,32.57
2023-02-23T19:55:31.211Z,32.10
2023-02-23T19:58:36.546Z,35.97
2023-02-23T20:01:41.221Z,33.70
2023-02-23T20:04:46.635Z,33.77
2023-02-23T20:07:51.858Z,34.50
2023-02-23T20:11:01.023Z,36.50
2023-02-23T20:14:05.932Z,34.20
2023-02-23T20:17:11.119Z,32.67
2023-02-23T20:20:18.418Z,33.50
2023-02-23T20:23:22.425Z,33.07
2023-02-23T20:26:34.724Z,33.20
2023-02-23T20:29:39.532Z,32.30
2023-02-23T20:32:44.371Z,34.20
2023-02-23T20:35:51.084Z,32.77
2023-02-23T20:38:56.849Z,35.27
2023-02-23T20:42:05.744Z,32.87
2023-02-23T20:45:15.198Z,30.07
2023-02-23T20:48:19.231Z,31.50
2023-02-23T20:51:23.886Z,35.70
2023-02-23T20:54:29.318Z,30.80
2023-02-23T20:57:37.007Z,32.90
2023-02-23T21:00:41.848Z,31.60
2023-02-23T21:03:47.335Z,30.73
2023-02-23T21:06:51.523Z,33.67
2023-02-23T21:09:55.822Z,32.87
2023-02-23T21:13:01.920Z,32.90
2023-02-23T21:16:06.952Z,31.53
2023-02-23T21:19:16.657Z,32.97
2023-02-23T21:22:21.239Z,33.90
2023-02-23T21:25:29.493Z,34.27
2023-02-23T21:28:35.988Z,34.47
2023-02-23T21:31:40.366Z,35.07
2023-02-23T21:34:44.220Z,32.40
2023-02-23T21:37:48.364Z,30.80
2023-02-23T21:40:51.556Z,32.90
2023-02-23T21:43:56.677Z,33.10
2023-02-23T21:47:00.656Z,34.90
2023-02-23T21:50:04.962Z,32.67
2023-02-23T21:53:09.401Z,32.00
2023-02-23T21:56:14.802Z,33.43
2023-02-23T21:59:20.069Z,35.50
2023-02-23T22:02:23.575Z,32.33
2023-02-23T22:05:27.226Z,31.83
2023-02-23T22:08:30.364Z,32.67
2023-02-23T22:11:37.437Z,32.93
2023-02-23T22:14:41.988Z,31.80
2023-02-23T22:17:45.709Z,32.87
2023-02-23T22:20:57.600Z,32.90
2023-02-23T22:24:01.664Z,31.70
2023-02-23T22:27:04.949Z,36.07
2023-02-23T22:30:12.275Z,34.50
2023-02-23T22:33:15.676Z,32.17
2023-02-23T22:36:19.135Z,32.17
2023-02-23T22:39:22.257Z,32.93
2023-02-23T22:42:29.158Z,32.90
2023-02-23T22:45:33.696Z,33.43
2023-02-23T22:48:37.238Z,34.03
2023-02-23T22:51:40.534Z,33.97
2023-02-23T22:54:45.619Z,32.30
2023-02-23T22:57:48.848Z,31.67
2023-02-23T23:01:04.137Z,33.27
2023-02-23T23:04:10.463Z,34.43
2023-02-23T23:07:13.829Z,33.30
2023-02-23T23:10:18.690Z,32.60
2023-02-23T23:13:23.209Z,34.27
2023-02-23T23:16:32.464Z,33.87
2023-02-23T23:19:39.146Z,35.43
2023-02-23T23:22:42.547Z,32.23
2023-02-23T23:25:47.969Z,35.03
2023-02-23T23:28:53.134Z,35.07
2023-02-23T23:31:58.182Z,32.97
2023-02-23T23:35:01.534Z,33.20
2023-02-23T23:38:06.199Z,33.50
2023-02-23T23:41:13.837Z,34.60
2023-02-23T23:44:18.355Z,33.90
2023-02-23T23:47:22.902Z,35.60
2023-02-23T23:50:27.456Z,33.10
2023-02-23T23:53:30.729Z,34.63
2023-02-23T23:56:37.410Z,37.00
2023-02-23T23:59:46.004Z,33.43
